LKSN weather

Slaný Airport
Slaný, Central Bohemian Region, Czech Republic

Public forecast

Using degrees Celsius for public forecast. Weather courtesy of forecast.io.

Closest aviation weather report (METAR) to Slaný Airport

Closest report is Václav Havel Airport Prague, 9.6 nm (17.8 km) SE. Retrieved 2020/04/09 18:00 UTC (6 minutes ago):

LKPR 091800Z 34005KT CAVOK 15/06 Q1022 NOSIG

Closest aviation forecast (TAF) to Slaný Airport

Closest forecast is Václav Havel Airport Prague, 9.6 nm (17.8 km) SE. Retrieved 2020/04/09 18:06 UTC (0 seconds ago):

TAF LKPR 091700Z 0918/1100 01008KT CAVOK TEMPO 0918/0920 35016KT